Pittsburg, California
Current Conditions -  °F | °C
As of 12:53 AM on Friday 24 Oct 2014 (Local Time) from KCCR Reporting Station
Clear Clear  
Wind Chill: 16°   Ceiling: Unl
Heat Index: 16°   Visibility: 10mi
Dew Point: 11°   Wind: 0mph
Humidity: 75%   Direction: NA
Pressure: 30"   Gusts: NA
Location:  38.02°N, 121.88°W
Report Text: KCCR 240753Z 00000KT 10SM CLR 16/11 A3000 RMK AO2 SLP145 T01560111 402390144
Loading
Personal Weather Stations






























Interactive Weather Map
Tropical Storm Tracking
New forecast layout! Learn more

10-Day Weather Forecast

Advertisements
Track Severe Weather on mobile